KGGW/GGW METAR and TAF weather

Enter ICAO airport designator
Station Type Date Time Source
KGGW METAR 2021/08/02 00:53 UTC NOAA

KGGW 020053Z AUTO 14003KT 10SM CLR 35/01 A3010 RMK AO2 SLP176 T03500006


Station Type Date Time Source
KGGW Decoded METAR 2021/08/02 00:53 UTC NOAA

GLASGOW INTERNATIONAL AIRPORT , MT, United States (KGGW) 48-13N 106-37W 693M
Aug 01, 2021 - 08:53 PM EDT / 2021.08.02 0053 UTC
Wind: from the SE (140 degrees) at 3 MPH (3 KT):0
Visibility: 10 mile(s):0
Sky conditions: clear
Temperature: 95.0 F (35.0 C)
Dew Point: 33.1 F (0.6 C)
Relative Humidity: 11%
Pressure (altimeter): 30.1 in. Hg (1019 hPa)
ob: KGGW 020053Z AUTO 14003KT 10SM CLR 35/01 A3010 RMK AO2 SLP176 T03500006
cycle: 1

Station Type Date Time Source
KGGW TAF 2021/08/01 18:22 UTC NOAA

TAF KGGW 011720Z 0118/0218 13009KT P6SM FEW200
FM020000 09009KT P6SM FEW160

Example: see airport list